Airport Name : Coober Pedy

Other Name : Coober Pedy

ICAO : YCBP

IATA : CPD

FAA :

Latitude : -29.04

Longitude : 134.720833

Country : Australia

Local Date and Time : 23 Sep 2021 20:53

 

TAF (Terminal Aerodrome Forecast)

 

METAR (METeorological Aerodrome Report)

YCBP 231100Z AUTO 03007KT 9999 // NCD 19/M05 Q1019

YCBP 231000Z AUTO 02005KT 9999 // NCD 21/M05 Q1019

YCBP 230900Z AUTO 01005KT 9999 // NCD 23/M05 Q1019

YCBP 230800Z AUTO 34004KT 310V050 9999 // NCD 25/M05 Q1018

To Charter a Jet Click here.